sensor_id;sensor_type;location;lat;lon;timestamp;temperature;humidity
27016;DHT22;14557;0.000;0.000;2024-03-17T00:02:23;21.80;59.50
27016;DHT22;14557;0.000;0.000;2024-03-17T00:04:49;21.80;59.50
27016;DHT22;14557;0.000;0.000;2024-03-17T00:07:15;21.70;59.40
27016;DHT22;14557;0.000;0.000;2024-03-17T00:09:40;21.70;59.10
27016;DHT22;14557;0.000;0.000;2024-03-17T00:12:06;21.70;59.30
27016;DHT22;14557;0.000;0.000;2024-03-17T00:14:35;21.70;59.20
27016;DHT22;14557;0.000;0.000;2024-03-17T00:17:01;21.70;59.40
27016;DHT22;14557;0.000;0.000;2024-03-17T00:19:26;21.60;59.50
27016;DHT22;14557;0.000;0.000;2024-03-17T00:21:52;21.60;59.50
27016;DHT22;14557;0.000;0.000;2024-03-17T00:24:19;21.60;59.60
27016;DHT22;14557;0.000;0.000;2024-03-17T00:26:45;21.50;59.80
27016;DHT22;14557;0.000;0.000;2024-03-17T00:29:10;21.50;59.80
27016;DHT22;14557;0.000;0.000;2024-03-17T00:31:36;21.50;59.80
27016;DHT22;14557;0.000;0.000;2024-03-17T00:34:02;21.40;59.90
27016;DHT22;14557;0.000;0.000;2024-03-17T00:36:29;21.40;60.00
27016;DHT22;14557;0.000;0.000;2024-03-17T00:38:55;21.40;60.20
27016;DHT22;14557;0.000;0.000;2024-03-17T00:41:21;21.40;60.20
27016;DHT22;14557;0.000;0.000;2024-03-17T00:43:47;21.30;60.10
27016;DHT22;14557;0.000;0.000;2024-03-17T00:46:12;21.30;60.00
27016;DHT22;14557;0.000;0.000;2024-03-17T00:48:38;21.30;60.30
27016;DHT22;14557;0.000;0.000;2024-03-17T00:51:03;21.30;60.40
27016;DHT22;14557;0.000;0.000;2024-03-17T00:53:29;21.20;60.50
27016;DHT22;14557;0.000;0.000;2024-03-17T00:55:55;21.20;60.70
27016;DHT22;14557;0.000;0.000;2024-03-17T00:58:24;21.20;60.60
27016;DHT22;14557;0.000;0.000;2024-03-17T01:00:49;21.20;60.90
27016;DHT22;14557;0.000;0.000;2024-03-17T01:03:16;21.10;60.80
27016;DHT22;14557;0.000;0.000;2024-03-17T01:05:41;21.10;61.10
27016;DHT22;14557;0.000;0.000;2024-03-17T01:08:12;21.10;60.90
27016;DHT22;14557;0.000;0.000;2024-03-17T01:10:41;21.10;61.10
27016;DHT22;14557;0.000;0.000;2024-03-17T01:13:07;21.10;61.30
27016;DHT22;14557;0.000;0.000;2024-03-17T01:15:33;21.00;61.20
27016;DHT22;14557;0.000;0.000;2024-03-17T01:17:59;21.00;61.10
27016;DHT22;14557;0.000;0.000;2024-03-17T01:20:25;21.00;61.50
27016;DHT22;14557;0.000;0.000;2024-03-17T01:22:51;20.90;61.50
27016;DHT22;14557;0.000;0.000;2024-03-17T01:25:16;20.90;61.50
27016;DHT22;14557;0.000;0.000;2024-03-17T01:27:42;21.00;61.90
27016;DHT22;14557;0.000;0.000;2024-03-17T01:30:09;20.90;61.70
27016;DHT22;14557;0.000;0.000;2024-03-17T01:32:35;20.90;61.90
27016;DHT22;14557;0.000;0.000;2024-03-17T01:35:00;20.90;61.80
27016;DHT22;14557;0.000;0.000;2024-03-17T01:37:26;20.90;61.90
27016;DHT22;14557;0.000;0.000;2024-03-17T01:39:52;20.90;61.70
27016;DHT22;14557;0.000;0.000;2024-03-17T01:42:18;20.80;61.80
27016;DHT22;14557;0.000;0.000;2024-03-17T01:44:43;20.80;61.60
27016;DHT22;14557;0.000;0.000;2024-03-17T01:47:09;20.80;61.90
27016;DHT22;14557;0.000;0.000;2024-03-17T01:49:35;20.80;61.80
27016;DHT22;14557;0.000;0.000;2024-03-17T01:52:01;20.80;62.00
27016;DHT22;14557;0.000;0.000;2024-03-17T01:54:29;20.80;62.20
27016;DHT22;14557;0.000;0.000;2024-03-17T01:56:54;20.80;62.10
27016;DHT22;14557;0.000;0.000;2024-03-17T01:59:20;20.70;62.10
27016;DHT22;14557;0.000;0.000;2024-03-17T02:01:46;20.70;62.30
27016;DHT22;14557;0.000;0.000;2024-03-17T02:04:11;20.70;62.30
27016;DHT22;14557;0.000;0.000;2024-03-17T02:06:37;20.70;62.20
27016;DHT22;14557;0.000;0.000;2024-03-17T02:09:03;20.70;62.40
27016;DHT22;14557;0.000;0.000;2024-03-17T02:11:30;20.70;62.40
27016;DHT22;14557;0.000;0.000;2024-03-17T02:13:56;20.70;62.50
27016;DHT22;14557;0.000;0.000;2024-03-17T02:16:22;20.70;62.50
27016;DHT22;14557;0.000;0.000;2024-03-17T02:18:49;20.60;62.50
27016;DHT22;14557;0.000;0.000;2024-03-17T02:21:15;20.60;62.60
27016;DHT22;14557;0.000;0.000;2024-03-17T02:23:42;20.60;62.60
27016;DHT22;14557;0.000;0.000;2024-03-17T02:26:07;20.60;62.80
27016;DHT22;14557;0.000;0.000;2024-03-17T02:28:40;20.60;62.80
27016;DHT22;14557;0.000;0.000;2024-03-17T02:31:07;20.50;62.70
27016;DHT22;14557;0.000;0.000;2024-03-17T02:33:33;20.60;62.70
27016;DHT22;14557;0.000;0.000;2024-03-17T02:35:58;20.50;62.70
27016;DHT22;14557;0.000;0.000;2024-03-17T02:38:25;20.50;62.90
27016;DHT22;14557;0.000;0.000;2024-03-17T02:41:09;20.50;62.90
27016;DHT22;14557;0.000;0.000;2024-03-17T02:43:34;20.50;62.90
27016;DHT22;14557;0.000;0.000;2024-03-17T02:46:01;20.50;63.00
27016;DHT22;14557;0.000;0.000;2024-03-17T02:48:30;20.50;63.10
27016;DHT22;14557;0.000;0.000;2024-03-17T02:50:55;20.50;63.00
27016;DHT22;14557;0.000;0.000;2024-03-17T02:53:21;20.50;63.10
27016;DHT22;14557;0.000;0.000;2024-03-17T02:55:47;20.50;63.20
27016;DHT22;14557;0.000;0.000;2024-03-17T02:58:12;20.50;63.20
27016;DHT22;14557;0.000;0.000;2024-03-17T03:00:38;20.40;63.30
27016;DHT22;14557;0.000;0.000;2024-03-17T03:03:05;20.40;63.20
27016;DHT22;14557;0.000;0.000;2024-03-17T03:05:31;20.40;63.00
27016;DHT22;14557;0.000;0.000;2024-03-17T03:07:56;20.50;63.30
27016;DHT22;14557;0.000;0.000;2024-03-17T03:10:22;20.40;63.30
27016;DHT22;14557;0.000;0.000;2024-03-17T03:12:47;20.40;63.30
27016;DHT22;14557;0.000;0.000;2024-03-17T03:15:13;20.40;63.30
27016;DHT22;14557;0.000;0.000;2024-03-17T03:17:39;20.40;63.20
27016;DHT22;14557;0.000;0.000;2024-03-17T03:20:04;20.30;63.40
27016;DHT22;14557;0.000;0.000;2024-03-17T03:22:31;20.30;63.40
27016;DHT22;14557;0.000;0.000;2024-03-17T03:24:56;20.30;64.10
27016;DHT22;14557;0.000;0.000;2024-03-17T03:27:23;20.30;63.50
27016;DHT22;14557;0.000;0.000;2024-03-17T03:29:49;20.30;63.40
27016;DHT22;14557;0.000;0.000;2024-03-17T03:32:15;20.30;63.40
27016;DHT22;14557;0.000;0.000;2024-03-17T03:34:41;20.30;63.50
27016;DHT22;14557;0.000;0.000;2024-03-17T03:37:06;20.30;63.50
27016;DHT22;14557;0.000;0.000;2024-03-17T03:39:33;20.30;63.50
27016;DHT22;14557;0.000;0.000;2024-03-17T03:42:01;20.30;63.60
27016;DHT22;14557;0.000;0.000;2024-03-17T03:44:27;20.30;63.50
27016;DHT22;14557;0.000;0.000;2024-03-17T03:46:54;20.20;63.40
27016;DHT22;14557;0.000;0.000;2024-03-17T03:49:27;20.20;63.50
27016;DHT22;14557;0.000;0.000;2024-03-17T03:51:54;20.20;63.50
27016;DHT22;14557;0.000;0.000;2024-03-17T03:54:19;20.20;63.50
27016;DHT22;14557;0.000;0.000;2024-03-17T03:56:45;20.20;63.60
27016;DHT22;14557;0.000;0.000;2024-03-17T03:59:10;20.20;63.70
27016;DHT22;14557;0.000;0.000;2024-03-17T04:01:36;20.20;63.70
27016;DHT22;14557;0.000;0.000;2024-03-17T04:04:02;20.20;63.60
27016;DHT22;14557;0.000;0.000;2024-03-17T04:06:28;20.20;63.50
27016;DHT22;14557;0.000;0.000;2024-03-17T04:08:54;20.20;63.50
27016;DHT22;14557;0.000;0.000;2024-03-17T04:11:19;20.10;63.60
27016;DHT22;14557;0.000;0.000;2024-03-17T04:13:45;20.10;63.50
27016;DHT22;14557;0.000;0.000;2024-03-17T04:16:12;20.10;63.60
27016;DHT22;14557;0.000;0.000;2024-03-17T04:18:38;20.10;63.60
27016;DHT22;14557;0.000;0.000;2024-03-17T04:21:05;20.10;63.50
27016;DHT22;14557;0.000;0.000;2024-03-17T04:23:34;20.10;63.50
27016;DHT22;14557;0.000;0.000;2024-03-17T04:26:00;20.10;63.50
27016;DHT22;14557;0.000;0.000;2024-03-17T04:28:26;20.10;63.60
27016;DHT22;14557;0.000;0.000;2024-03-17T04:30:52;20.10;63.50
27016;DHT22;14557;0.000;0.000;2024-03-17T04:33:18;20.10;63.60
27016;DHT22;14557;0.000;0.000;2024-03-17T04:35:43;20.10;63.50
27016;DHT22;14557;0.000;0.000;2024-03-17T04:38:09;20.10;63.60
27016;DHT22;14557;0.000;0.000;2024-03-17T04:40:39;20.00;63.60
27016;DHT22;14557;0.000;0.000;2024-03-17T04:43:05;20.00;63.50
27016;DHT22;14557;0.000;0.000;2024-03-17T04:45:31;20.00;63.50
27016;DHT22;14557;0.000;0.000;2024-03-17T04:47:57;20.00;63.70
27016;DHT22;14557;0.000;0.000;2024-03-17T04:50:23;20.00;63.50
27016;DHT22;14557;0.000;0.000;2024-03-17T04:52:48;20.00;63.50
27016;DHT22;14557;0.000;0.000;2024-03-17T04:55:14;20.00;63.70
27016;DHT22;14557;0.000;0.000;2024-03-17T04:57:42;20.00;63.60
27016;DHT22;14557;0.000;0.000;2024-03-17T05:00:08;20.00;63.50
27016;DHT22;14557;0.000;0.000;2024-03-17T05:02:34;20.00;63.50
27016;DHT22;14557;0.000;0.000;2024-03-17T05:05:00;20.00;63.60
27016;DHT22;14557;0.000;0.000;2024-03-17T05:07:25;19.90;63.50
27016;DHT22;14557;0.000;0.000;2024-03-17T05:09:51;20.00;63.50
27016;DHT22;14557;0.000;0.000;2024-03-17T05:12:16;20.00;63.50
27016;DHT22;14557;0.000;0.000;2024-03-17T05:14:42;19.90;63.40
27016;DHT22;14557;0.000;0.000;2024-03-17T05:17:08;19.90;63.40
27016;DHT22;14557;0.000;0.000;2024-03-17T05:19:34;19.90;63.50
27016;DHT22;14557;0.000;0.000;2024-03-17T05:21:59;19.90;63.50
27016;DHT22;14557;0.000;0.000;2024-03-17T05:24:25;19.90;63.40
27016;DHT22;14557;0.000;0.000;2024-03-17T05:26:51;19.90;63.40
27016;DHT22;14557;0.000;0.000;2024-03-17T05:29:16;19.90;63.40
27016;DHT22;14557;0.000;0.000;2024-03-17T05:31:42;19.90;63.30
27016;DHT22;14557;0.000;0.000;2024-03-17T05:34:09;19.90;63.40
27016;DHT22;14557;0.000;0.000;2024-03-17T05:36:35;19.90;63.30
27016;DHT22;14557;0.000;0.000;2024-03-17T05:39:01;19.90;63.40
27016;DHT22;14557;0.000;0.000;2024-03-17T05:41:27;19.90;63.40
27016;DHT22;14557;0.000;0.000;2024-03-17T05:43:53;19.90;63.30
27016;DHT22;14557;0.000;0.000;2024-03-17T05:46:19;19.80;63.20
27016;DHT22;14557;0.000;0.000;2024-03-17T05:48:45;19.90;63.20
27016;DHT22;14557;0.000;0.000;2024-03-17T05:51:11;19.80;63.30
27016;DHT22;14557;0.000;0.000;2024-03-17T05:53:37;19.80;63.30
27016;DHT22;14557;0.000;0.000;2024-03-17T05:56:05;19.80;63.20
27016;DHT22;14557;0.000;0.000;2024-03-17T05:58:33;19.80;63.30
27016;DHT22;14557;0.000;0.000;2024-03-17T06:01:01;19.80;63.10
27016;DHT22;14557;0.000;0.000;2024-03-17T06:03:27;19.80;63.30
27016;DHT22;14557;0.000;0.000;2024-03-17T06:05:52;19.90;63.20
27016;DHT22;14557;0.000;0.000;2024-03-17T06:08:19;19.80;63.20
27016;DHT22;14557;0.000;0.000;2024-03-17T06:10:45;19.80;63.10
27016;DHT22;14557;0.000;0.000;2024-03-17T06:13:14;19.80;63.20
27016;DHT22;14557;0.000;0.000;2024-03-17T06:15:43;19.80;63.10
27016;DHT22;14557;0.000;0.000;2024-03-17T06:18:11;19.80;63.20
27016;DHT22;14557;0.000;0.000;2024-03-17T06:20:41;19.80;63.10
27016;DHT22;14557;0.000;0.000;2024-03-17T06:23:13;19.70;63.00
27016;DHT22;14557;0.000;0.000;2024-03-17T06:25:40;19.70;63.00
27016;DHT22;14557;0.000;0.000;2024-03-17T06:28:06;19.70;63.00
27016;DHT22;14557;0.000;0.000;2024-03-17T06:30:31;19.70;63.10
27016;DHT22;14557;0.000;0.000;2024-03-17T06:32:58;19.70;62.90
27016;DHT22;14557;0.000;0.000;2024-03-17T06:35:23;19.70;63.10
27016;DHT22;14557;0.000;0.000;2024-03-17T06:37:52;19.70;63.00
27016;DHT22;14557;0.000;0.000;2024-03-17T06:40:18;19.70;63.00
27016;DHT22;14557;0.000;0.000;2024-03-17T06:42:44;19.70;62.90
27016;DHT22;14557;0.000;0.000;2024-03-17T06:45:09;19.70;63.00
27016;DHT22;14557;0.000;0.000;2024-03-17T06:47:39;19.70;63.00
27016;DHT22;14557;0.000;0.000;2024-03-17T06:50:05;19.70;63.00
27016;DHT22;14557;0.000;0.000;2024-03-17T06:52:31;19.70;63.00
27016;DHT22;14557;0.000;0.000;2024-03-17T06:54:57;19.80;63.00
27016;DHT22;14557;0.000;0.000;2024-03-17T06:57:24;19.70;62.90
27016;DHT22;14557;0.000;0.000;2024-03-17T06:59:49;19.60;62.70
27016;DHT22;14557;0.000;0.000;2024-03-17T07:02:16;19.70;62.80
27016;DHT22;14557;0.000;0.000;2024-03-17T07:04:43;19.70;62.90
27016;DHT22;14557;0.000;0.000;2024-03-17T07:07:09;19.70;62.90
27016;DHT22;14557;0.000;0.000;2024-03-17T07:09:34;19.60;62.80
27016;DHT22;14557;0.000;0.000;2024-03-17T07:12:00;19.60;62.70
27016;DHT22;14557;0.000;0.000;2024-03-17T07:14:25;19.60;62.70
27016;DHT22;14557;0.000;0.000;2024-03-17T07:16:52;19.60;62.70
27016;DHT22;14557;0.000;0.000;2024-03-17T07:19:18;19.60;62.80
27016;DHT22;14557;0.000;0.000;2024-03-17T07:21:44;19.60;62.70
27016;DHT22;14557;0.000;0.000;2024-03-17T07:24:09;19.50;62.60
27016;DHT22;14557;0.000;0.000;2024-03-17T07:26:35;19.60;63.50
27016;DHT22;14557;0.000;0.000;2024-03-17T07:29:01;19.60;62.70
27016;DHT22;14557;0.000;0.000;2024-03-17T07:31:26;19.60;62.70
27016;DHT22;14557;0.000;0.000;2024-03-17T07:33:52;19.60;62.80
27016;DHT22;14557;0.000;0.000;2024-03-17T07:36:17;19.60;62.80
27016;DHT22;14557;0.000;0.000;2024-03-17T07:38:44;19.60;62.80
27016;DHT22;14557;0.000;0.000;2024-03-17T07:41:09;19.60;62.80
27016;DHT22;14557;0.000;0.000;2024-03-17T07:43:35;19.60;62.80
27016;DHT22;14557;0.000;0.000;2024-03-17T07:46:05;19.60;62.90
27016;DHT22;14557;0.000;0.000;2024-03-17T07:48:31;19.60;62.80
27016;DHT22;14557;0.000;0.000;2024-03-17T07:50:58;19.50;62.80
27016;DHT22;14557;0.000;0.000;2024-03-17T07:53:24;19.60;62.90
27016;DHT22;14557;0.000;0.000;2024-03-17T07:56:23;19.60;62.90
27016;DHT22;14557;0.000;0.000;2024-03-17T07:58:43;19.60;62.90
27016;DHT22;14557;0.000;0.000;2024-03-17T08:03:38;19.60;62.90
27016;DHT22;14557;0.000;0.000;2024-03-17T08:06:05;19.60;63.00
27016;DHT22;14557;0.000;0.000;2024-03-17T08:08:31;19.50;62.90
27016;DHT22;14557;0.000;0.000;2024-03-17T08:10:57;19.60;63.00
27016;DHT22;14557;0.000;0.000;2024-03-17T08:13:23;19.60;63.00
27016;DHT22;14557;0.000;0.000;2024-03-17T08:15:56;19.50;63.00
27016;DHT22;14557;0.000;0.000;2024-03-17T08:18:22;19.50;63.00
27016;DHT22;14557;0.000;0.000;2024-03-17T08:20:47;19.50;63.00
27016;DHT22;14557;0.000;0.000;2024-03-17T08:23:13;19.50;63.10
27016;DHT22;14557;0.000;0.000;2024-03-17T08:25:38;19.60;63.60
27016;DHT22;14557;0.000;0.000;2024-03-17T08:28:04;19.60;63.50
27016;DHT22;14557;0.000;0.000;2024-03-17T08:30:30;19.60;68.40
27016;DHT22;14557;0.000;0.000;2024-03-17T08:32:56;19.60;67.70
27016;DHT22;14557;0.000;0.000;2024-03-17T08:35:22;19.60;66.70
27016;DHT22;14557;0.000;0.000;2024-03-17T08:37:47;19.70;66.20
27016;DHT22;14557;0.000;0.000;2024-03-17T08:40:13;19.60;66.70
27016;DHT22;14557;0.000;0.000;2024-03-17T08:42:39;19.60;67.00
27016;DHT22;14557;0.000;0.000;2024-03-17T08:45:05;19.60;66.50
27016;DHT22;14557;0.000;0.000;2024-03-17T08:47:30;19.70;67.50
27016;DHT22;14557;0.000;0.000;2024-03-17T08:49:56;19.70;66.90
27016;DHT22;14557;0.000;0.000;2024-03-17T08:52:23;19.70;66.30
27016;DHT22;14557;0.000;0.000;2024-03-17T08:54:49;19.70;65.90
27016;DHT22;14557;0.000;0.000;2024-03-17T08:57:17;19.70;65.40
27016;DHT22;14557;0.000;0.000;2024-03-17T08:59:45;19.90;65.20
27016;DHT22;14557;0.000;0.000;2024-03-17T09:02:11;19.70;64.80
27016;DHT22;14557;0.000;0.000;2024-03-17T09:04:39;19.70;64.60
27016;DHT22;14557;0.000;0.000;2024-03-17T09:07:04;19.70;64.30
27016;DHT22;14557;0.000;0.000;2024-03-17T09:09:30;19.70;64.20
27016;DHT22;14557;0.000;0.000;2024-03-17T09:11:56;19.70;63.90
27016;DHT22;14557;0.000;0.000;2024-03-17T09:14:21;19.70;63.80
27016;DHT22;14557;0.000;0.000;2024-03-17T09:16:48;19.70;63.80
27016;DHT22;14557;0.000;0.000;2024-03-17T09:19:13;19.80;63.80
27016;DHT22;14557;0.000;0.000;2024-03-17T09:21:39;19.70;64.30
27016;DHT22;14557;0.000;0.000;2024-03-17T09:24:05;19.70;63.60
27016;DHT22;14557;0.000;0.000;2024-03-17T09:26:32;19.70;63.50
27016;DHT22;14557;0.000;0.000;2024-03-17T09:28:59;19.80;63.90
27016;DHT22;14557;0.000;0.000;2024-03-17T09:31:25;19.80;63.90
27016;DHT22;14557;0.000;0.000;2024-03-17T09:33:51;19.80;64.30
27016;DHT22;14557;0.000;0.000;2024-03-17T09:36:17;19.90;64.70
27016;DHT22;14557;0.000;0.000;2024-03-17T09:38:44;19.90;64.40
27016;DHT22;14557;0.000;0.000;2024-03-17T09:41:17;19.90;64.00
27016;DHT22;14557;0.000;0.000;2024-03-17T09:43:44;19.90;63.90
27016;DHT22;14557;0.000;0.000;2024-03-17T09:46:12;19.90;64.70
27016;DHT22;14557;0.000;0.000;2024-03-17T09:48:38;20.00;65.00
27016;DHT22;14557;0.000;0.000;2024-03-17T09:51:04;20.00;65.10
27016;DHT22;14557;0.000;0.000;2024-03-17T09:53:30;20.00;65.20
27016;DHT22;14557;0.000;0.000;2024-03-17T09:56:18;20.00;65.00
27016;DHT22;14557;0.000;0.000;2024-03-17T09:58:47;20.00;64.60
27016;DHT22;14557;0.000;0.000;2024-03-17T10:01:13;20.00;64.80
27016;DHT22;14557;0.000;0.000;2024-03-17T10:03:48;20.00;65.70
27016;DHT22;14557;0.000;0.000;2024-03-17T10:06:17;20.10;66.50
27016;DHT22;14557;0.000;0.000;2024-03-17T10:08:44;20.10;65.30
27016;DHT22;14557;0.000;0.000;2024-03-17T10:11:10;20.10;65.50
27016;DHT22;14557;0.000;0.000;2024-03-17T10:13:37;20.20;66.60
27016;DHT22;14557;0.000;0.000;2024-03-17T10:16:03;20.20;69.60
27016;DHT22;14557;0.000;0.000;2024-03-17T10:18:29;20.20;67.10
27016;DHT22;14557;0.000;0.000;2024-03-17T10:20:55;20.20;66.10
27016;DHT22;14557;0.000;0.000;2024-03-17T10:23:22;20.30;65.80
27016;DHT22;14557;0.000;0.000;2024-03-17T10:25:48;20.20;65.20
27016;DHT22;14557;0.000;0.000;2024-03-17T10:28:15;20.30;65.10
27016;DHT22;14557;0.000;0.000;2024-03-17T10:30:41;20.30;65.00
27016;DHT22;14557;0.000;0.000;2024-03-17T10:33:07;20.30;64.80
27016;DHT22;14557;0.000;0.000;2024-03-17T10:35:48;20.30;64.80
27016;DHT22;14557;0.000;0.000;2024-03-17T10:38:14;20.30;64.60
27016;DHT22;14557;0.000;0.000;2024-03-17T10:40:42;20.30;64.40
27016;DHT22;14557;0.000;0.000;2024-03-17T10:43:08;20.30;64.30
27016;DHT22;14557;0.000;0.000;2024-03-17T10:45:35;20.30;64.40
27016;DHT22;14557;0.000;0.000;2024-03-17T10:48:07;20.40;67.10
27016;DHT22;14557;0.000;0.000;2024-03-17T10:50:35;20.40;67.00
27016;DHT22;14557;0.000;0.000;2024-03-17T10:53:02;20.40;66.50
27016;DHT22;14557;0.000;0.000;2024-03-17T10:55:29;20.40;66.10
27016;DHT22;14557;0.000;0.000;2024-03-17T10:57:56;20.40;65.90
27016;DHT22;14557;0.000;0.000;2024-03-17T11:00:25;20.50;66.00
27016;DHT22;14557;0.000;0.000;2024-03-17T11:02:54;20.50;65.90
27016;DHT22;14557;0.000;0.000;2024-03-17T11:05:21;20.50;65.80
27016;DHT22;14557;0.000;0.000;2024-03-17T11:07:48;20.50;66.00
27016;DHT22;14557;0.000;0.000;2024-03-17T11:10:15;20.50;66.50
27016;DHT22;14557;0.000;0.000;2024-03-17T11:12:43;20.50;66.60
27016;DHT22;14557;0.000;0.000;2024-03-17T11:17:47;20.50;67.90
27016;DHT22;14557;0.000;0.000;2024-03-17T11:20:13;20.60;67.40
27016;DHT22;14557;0.000;0.000;2024-03-17T11:22:43;20.50;66.90
27016;DHT22;14557;0.000;0.000;2024-03-17T11:27:59;20.60;67.00
27016;DHT22;14557;0.000;0.000;2024-03-17T11:35:56;20.60;67.30
27016;DHT22;14557;0.000;0.000;2024-03-17T11:47:03;20.70;65.90
27016;DHT22;14557;0.000;0.000;2024-03-17T11:49:33;20.70;65.70
27016;DHT22;14557;0.000;0.000;2024-03-17T11:52:00;20.70;65.50
27016;DHT22;14557;0.000;0.000;2024-03-17T11:54:27;20.70;65.20
27016;DHT22;14557;0.000;0.000;2024-03-17T11:56:54;20.70;65.20
27016;DHT22;14557;0.000;0.000;2024-03-17T11:59:20;20.80;65.10
27016;DHT22;14557;0.000;0.000;2024-03-17T12:01:46;20.70;64.80
27016;DHT22;14557;0.000;0.000;2024-03-17T12:04:16;20.80;64.80
27016;DHT22;14557;0.000;0.000;2024-03-17T12:06:45;20.70;64.70
27016;DHT22;14557;0.000;0.000;2024-03-17T12:09:17;20.80;64.40
27016;DHT22;14557;0.000;0.000;2024-03-17T12:11:46;20.80;64.30
27016;DHT22;14557;0.000;0.000;2024-03-17T12:14:14;20.80;64.20
27016;DHT22;14557;0.000;0.000;2024-03-17T12:16:49;20.80;64.10
27016;DHT22;14557;0.000;0.000;2024-03-17T12:19:17;20.80;64.20
27016;DHT22;14557;0.000;0.000;2024-03-17T12:21:43;20.80;64.10
27016;DHT22;14557;0.000;0.000;2024-03-17T12:24:16;20.80;63.80
27016;DHT22;14557;0.000;0.000;2024-03-17T12:26:43;20.80;63.60
27016;DHT22;14557;0.000;0.000;2024-03-17T12:31:55;21.00;63.40
27016;DHT22;14557;0.000;0.000;2024-03-17T12:34:21;20.90;63.40
27016;DHT22;14557;0.000;0.000;2024-03-17T12:36:47;20.90;63.40
27016;DHT22;14557;0.000;0.000;2024-03-17T12:41:44;20.90;63.20
27016;DHT22;14557;0.000;0.000;2024-03-17T12:44:22;20.90;63.40
27016;DHT22;14557;0.000;0.000;2024-03-17T12:46:48;20.90;64.10
27016;DHT22;14557;0.000;0.000;2024-03-17T12:49:13;21.00;64.20
27016;DHT22;14557;0.000;0.000;2024-03-17T12:51:39;21.00;64.10
27016;DHT22;14557;0.000;0.000;2024-03-17T12:54:11;21.00;63.80
27016;DHT22;14557;0.000;0.000;2024-03-17T12:56:37;21.00;64.20
27016;DHT22;14557;0.000;0.000;2024-03-17T12:59:21;21.10;64.30
27016;DHT22;14557;0.000;0.000;2024-03-17T13:02:07;21.10;64.20
27016;DHT22;14557;0.000;0.000;2024-03-17T13:04:35;21.10;64.20
27016;DHT22;14557;0.000;0.000;2024-03-17T13:07:09;21.10;64.00
27016;DHT22;14557;0.000;0.000;2024-03-17T13:09:35;21.10;64.00
27016;DHT22;14557;0.000;0.000;2024-03-17T13:12:00;21.20;63.70
27016;DHT22;14557;0.000;0.000;2024-03-17T13:14:26;21.10;63.70
27016;DHT22;14557;0.000;0.000;2024-03-17T13:16:51;21.10;63.50
27016;DHT22;14557;0.000;0.000;2024-03-17T13:19:17;21.10;63.20
27016;DHT22;14557;0.000;0.000;2024-03-17T13:21:43;21.10;63.80
27016;DHT22;14557;0.000;0.000;2024-03-17T13:24:08;21.20;63.70
27016;DHT22;14557;0.000;0.000;2024-03-17T13:26:34;21.20;63.50
27016;DHT22;14557;0.000;0.000;2024-03-17T13:28:59;21.20;63.50
27016;DHT22;14557;0.000;0.000;2024-03-17T13:31:25;21.20;63.40
27016;DHT22;14557;0.000;0.000;2024-03-17T13:33:51;21.20;63.20
27016;DHT22;14557;0.000;0.000;2024-03-17T13:36:16;21.20;63.00
27016;DHT22;14557;0.000;0.000;2024-03-17T13:38:42;21.20;63.00
27016;DHT22;14557;0.000;0.000;2024-03-17T13:41:08;21.20;63.10
27016;DHT22;14557;0.000;0.000;2024-03-17T13:43:34;21.20;63.00
27016;DHT22;14557;0.000;0.000;2024-03-17T13:45:59;21.20;63.00
27016;DHT22;14557;0.000;0.000;2024-03-17T13:48:25;21.20;62.90
27016;DHT22;14557;0.000;0.000;2024-03-17T13:50:51;21.20;65.10
27016;DHT22;14557;0.000;0.000;2024-03-17T13:53:17;21.20;68.00
27016;DHT22;14557;0.000;0.000;2024-03-17T13:55:43;21.20;68.60
27016;DHT22;14557;0.000;0.000;2024-03-17T13:58:09;21.30;67.90
27016;DHT22;14557;0.000;0.000;2024-03-17T14:00:35;21.20;68.50
27016;DHT22;14557;0.000;0.000;2024-03-17T14:03:05;21.30;67.60
27016;DHT22;14557;0.000;0.000;2024-03-17T14:05:30;21.30;66.20
27016;DHT22;14557;0.000;0.000;2024-03-17T14:07:59;21.30;66.60
27016;DHT22;14557;0.000;0.000;2024-03-17T14:10:25;21.30;66.30
27016;DHT22;14557;0.000;0.000;2024-03-17T14:12:51;21.30;65.60
27016;DHT22;14557;0.000;0.000;2024-03-17T14:15:16;21.30;65.20
27016;DHT22;14557;0.000;0.000;2024-03-17T14:17:43;21.30;64.80
27016;DHT22;14557;0.000;0.000;2024-03-17T14:20:09;21.30;64.70
27016;DHT22;14557;0.000;0.000;2024-03-17T14:22:38;21.20;64.60
27016;DHT22;14557;0.000;0.000;2024-03-17T14:25:05;21.30;64.40
27016;DHT22;14557;0.000;0.000;2024-03-17T14:27:31;21.30;64.30
27016;DHT22;14557;0.000;0.000;2024-03-17T14:29:57;21.30;64.20
27016;DHT22;14557;0.000;0.000;2024-03-17T14:32:23;21.30;65.10
27016;DHT22;14557;0.000;0.000;2024-03-17T14:34:48;21.30;64.60
27016;DHT22;14557;0.000;0.000;2024-03-17T14:37:14;21.30;64.10
27016;DHT22;14557;0.000;0.000;2024-03-17T14:39:40;21.30;64.60
27016;DHT22;14557;0.000;0.000;2024-03-17T14:42:05;21.30;64.30
27016;DHT22;14557;0.000;0.000;2024-03-17T14:44:33;21.20;63.60
27016;DHT22;14557;0.000;0.000;2024-03-17T14:46:59;21.30;63.50
27016;DHT22;14557;0.000;0.000;2024-03-17T14:49:25;21.30;63.20
27016;DHT22;14557;0.000;0.000;2024-03-17T14:51:51;21.30;63.10
27016;DHT22;14557;0.000;0.000;2024-03-17T14:54:16;21.30;63.60
27016;DHT22;14557;0.000;0.000;2024-03-17T14:56:42;21.30;62.60
27016;DHT22;14557;0.000;0.000;2024-03-17T14:59:07;21.30;63.30
27016;DHT22;14557;0.000;0.000;2024-03-17T15:01:34;21.30;63.00
27016;DHT22;14557;0.000;0.000;2024-03-17T15:03:59;21.30;62.60
27016;DHT22;14557;0.000;0.000;2024-03-17T15:06:25;21.30;62.50
27016;DHT22;14557;0.000;0.000;2024-03-17T15:08:52;21.30;62.50
27016;DHT22;14557;0.000;0.000;2024-03-17T15:11:18;21.30;62.50
27016;DHT22;14557;0.000;0.000;2024-03-17T15:13:43;21.30;62.40
27016;DHT22;14557;0.000;0.000;2024-03-17T15:16:10;21.30;62.30
27016;DHT22;14557;0.000;0.000;2024-03-17T15:18:36;21.30;62.30
27016;DHT22;14557;0.000;0.000;2024-03-17T15:21:02;21.20;62.20
27016;DHT22;14557;0.000;0.000;2024-03-17T15:23:30;21.30;62.20
27016;DHT22;14557;0.000;0.000;2024-03-17T15:25:59;21.30;62.20
27016;DHT22;14557;0.000;0.000;2024-03-17T15:28:26;21.20;62.10
27016;DHT22;14557;0.000;0.000;2024-03-17T15:30:52;21.20;62.10
27016;DHT22;14557;0.000;0.000;2024-03-17T15:33:17;21.20;62.00
27016;DHT22;14557;0.000;0.000;2024-03-17T15:35:43;21.20;62.00
27016;DHT22;14557;0.000;0.000;2024-03-17T15:38:09;21.20;62.00
27016;DHT22;14557;0.000;0.000;2024-03-17T15:40:34;21.20;62.00
27016;DHT22;14557;0.000;0.000;2024-03-17T15:43:02;21.20;61.90
27016;DHT22;14557;0.000;0.000;2024-03-17T15:45:29;21.20;61.90
27016;DHT22;14557;0.000;0.000;2024-03-17T15:47:54;21.20;62.70
27016;DHT22;14557;0.000;0.000;2024-03-17T15:50:22;21.20;61.90
27016;DHT22;14557;0.000;0.000;2024-03-17T15:52:47;21.20;62.70
27016;DHT22;14557;0.000;0.000;2024-03-17T15:55:14;21.20;61.90
27016;DHT22;14557;0.000;0.000;2024-03-17T15:57:40;21.20;61.90
27016;DHT22;14557;0.000;0.000;2024-03-17T16:00:06;21.20;62.00
27016;DHT22;14557;0.000;0.000;2024-03-17T16:02:34;21.20;61.90
27016;DHT22;14557;0.000;0.000;2024-03-17T16:04:59;21.20;62.00
27016;DHT22;14557;0.000;0.000;2024-03-17T16:07:25;21.20;62.00
27016;DHT22;14557;0.000;0.000;2024-03-17T16:09:51;21.20;62.00